METAR Data

Data at: 0617 UTC 28 Sep 2022

METAR for:KBGR (Bangor Intl Arpt, ME, US)
Text:KBGR 280553Z 20004KT 1/4SM R15/1200V1600FT FG VV001 12/12 A2987 RMK AO2 SLP112 T01170117 10150 20111 51007
Temperature: 11.7°C ( 53°F)
Dewpoint: 11.7°C ( 53°F) [RH = 100%]
Pressure (altimeter):29.87 inches Hg (1011.6 mb) [Sea level pressure: 1011.2 mb]
Winds:from the SSW (200 degrees) at 5 MPH (4 knots; 2.1 m/s)
Visibility: 0.25 sm ( 0.40 km)
Ceiling:indefinite ceiling with vertical visibility of 100 feet AGL
Clouds:obscured sky
Weather:FG (fog)